Time;durP1;ratioP1;P1;durP2;ratioP2;P2;SDS_P1;SDS_P2;PMS_P1;PMS_P2;Temp;Humidity;BMP_temperature;BMP_pressure;BME280_temperature;BME280_humidity;BME280_pressure;Samples;Min_cycle;Max_cycle;Signal;HPM_P1;HPM_P2
2022/09/18 00:01:11;;;;;;;15.53;9.90;;;10.50;99.90;;;;;;6310195;22;20387;-61
2022/09/18 00:03:38;;;;;;;14.20;10.10;;;10.40;99.90;;;;;;6311003;22;20531;-61
2022/09/18 00:06:12;;;;;;;17.60;10.70;;;10.50;99.90;;;;;;6309157;22;20419;-61
2022/09/18 00:08:42;;;;;;;14.23;11.93;;;10.60;99.90;;;;;;6310904;22;20423;-61
2022/09/18 00:11:12;;;;;;;16.03;11.60;;;10.50;99.90;;;;;;6310695;22;20945;-61
2022/09/18 00:13:40;;;;;;;15.70;11.10;;;10.50;99.90;;;;;;6310826;22;20711;-61
2022/09/18 00:16:09;;;;;;;15.00;11.57;;;10.40;99.90;;;;;;6309990;22;20419;-61
2022/09/18 00:18:37;;;;;;;12.27;10.97;;;10.40;99.90;;;;;;6310165;22;20390;-60
2022/09/18 00:21:05;;;;;;;14.57;10.33;;;10.50;99.90;;;;;;6310029;22;20420;-61
2022/09/18 00:23:34;;;;;;;13.53;9.93;;;10.50;99.90;;;;;;6310965;22;20420;-61
2022/09/18 00:26:04;;;;;;;10.73;8.30;;;10.50;99.90;;;;;;6310541;22;20395;-61
2022/09/18 00:28:32;;;;;;;16.37;8.20;;;10.50;99.90;;;;;;6310643;22;20391;-61
2022/09/18 00:31:05;;;;;;;15.97;9.27;;;10.60;99.90;;;;;;6310201;22;20422;-61
2022/09/18 00:33:32;;;;;;;11.53;8.20;;;10.60;99.90;;;;;;6311121;22;20424;-61
2022/09/18 00:36:02;;;;;;;17.10;9.50;;;10.50;99.90;;;;;;6311232;22;20389;-61
2022/09/18 00:38:30;;;;;;;18.43;10.93;;;10.50;99.90;;;;;;6310522;22;20440;-61
2022/09/18 00:41:01;;;;;;;15.30;11.10;;;10.50;99.90;;;;;;6309780;22;20466;-61
2022/09/18 00:43:33;;;;;;;17.83;13.47;;;10.40;99.90;;;;;;6309390;22;20879;-60
2022/09/18 00:46:04;;;;;;;16.17;10.70;;;10.50;99.90;;;;;;6310260;22;20428;-61
2022/09/18 00:48:42;;;;;;;10.57;9.43;;;10.50;99.90;;;;;;6309849;22;20412;-61
2022/09/18 00:51:09;;;;;;;12.27;9.87;;;10.50;99.90;;;;;;6310142;22;20448;-61
2022/09/18 00:53:41;;;;;;;10.90;9.80;;;10.50;99.90;;;;;;6309511;22;20416;-61
2022/09/18 00:56:14;;;;;;;15.37;10.47;;;10.50;99.90;;;;;;6310233;22;20416;-58
2022/09/18 00:58:42;;;;;;;10.77;9.60;;;10.40;99.90;;;;;;6309897;22;20422;-61
2022/09/18 01:01:12;;;;;;;14.60;9.30;;;10.50;99.90;;;;;;6309724;22;20393;-61
2022/09/18 01:03:40;;;;;;;15.17;9.07;;;10.50;99.90;;;;;;6309389;22;20772;-61
2022/09/18 01:06:15;;;;;;;10.50;9.30;;;10.50;99.90;;;;;;6309894;22;20416;-61
2022/09/18 01:08:54;;;;;;;12.70;10.00;;;10.50;99.90;;;;;;6309788;22;20426;-62
2022/09/18 01:11:33;;;;;;;14.33;10.90;;;10.50;99.90;;;;;;6309443;22;20472;-61
2022/09/18 01:14:15;;;;;;;13.70;11.80;;;10.60;99.90;;;;;;6310232;22;20493;-61
2022/09/18 01:16:50;;;;;;;15.10;12.07;;;10.60;99.90;;;;;;6310001;22;20707;-61
2022/09/18 01:19:43;;;;;;;12.70;11.40;;;10.50;99.90;;;;;;6309525;22;20412;-61
2022/09/18 01:22:23;;;;;;;13.83;11.77;;;10.50;99.90;;;;;;6310057;22;20842;-61
2022/09/18 01:25:06;;;;;;;14.97;11.80;;;10.50;99.90;;;;;;6309311;22;20391;-62
2022/09/18 01:27:47;;;;;;;26.60;13.20;;;10.50;99.90;;;;;;6309684;22;20420;-61
2022/09/18 01:30:14;;;;;;;18.63;13.60;;;10.50;99.90;;;;;;6309010;22;20792;-62
2022/09/18 01:32:46;;;;;;;17.53;13.90;;;10.50;99.90;;;;;;6309302;22;20485;-61
2022/09/18 01:35:19;;;;;;;22.47;15.93;;;10.60;99.90;;;;;;6309175;22;20401;-61
2022/09/18 01:37:53;;;;;;;19.60;15.83;;;10.60;99.90;;;;;;6309910;22;20439;-61
2022/09/18 01:40:25;;;;;;;17.73;14.83;;;10.60;99.90;;;;;;6309248;22;20898;-61
2022/09/18 01:42:57;;;;;;;20.20;15.07;;;10.60;99.90;;;;;;6309774;22;20424;-61
2022/09/18 01:45:28;;;;;;;19.20;15.90;;;10.50;99.90;;;;;;6308821;22;20416;-60
2022/09/18 01:48:02;;;;;;;20.27;14.27;;;10.60;99.90;;;;;;6309917;22;20444;-59
2022/09/18 01:50:32;;;;;;;21.60;16.23;;;10.60;99.90;;;;;;6309928;22;20444;-60
2022/09/18 01:53:05;;;;;;;20.87;16.90;;;10.60;99.90;;;;;;6309683;22;20426;-61
2022/09/18 01:55:34;;;;;;;16.43;14.03;;;10.60;99.90;;;;;;6309531;22;20412;-61
2022/09/18 01:58:07;;;;;;;16.60;14.83;;;10.50;99.90;;;;;;6309875;22;20390;-60
2022/09/18 02:00:36;;;;;;;19.60;16.33;;;10.60;99.90;;;;;;6309867;22;20379;-62
2022/09/18 02:03:07;;;;;;;21.60;15.03;;;10.60;99.90;;;;;;6309718;22;20748;-61
2022/09/18 02:05:39;;;;;;;20.30;16.60;;;10.60;99.90;;;;;;6309760;22;20431;-62
2022/09/18 02:08:11;;;;;;;17.13;15.33;;;10.60;99.90;;;;;;6308616;22;20769;-62
2022/09/18 02:10:44;;;;;;;21.93;14.47;;;10.70;99.90;;;;;;6309363;22;20890;-62
2022/09/18 02:13:16;;;;;;;15.97;13.17;;;10.70;99.90;;;;;;6309512;22;20402;-61
2022/09/18 02:15:45;;;;;;;15.80;13.03;;;10.60;99.90;;;;;;6308472;22;20392;-61
2022/09/18 02:18:17;;;;;;;19.10;12.40;;;10.70;99.90;;;;;;6309929;22;20704;-61
2022/09/18 02:20:45;;;;;;;15.07;12.23;;;10.60;99.90;;;;;;6309677;22;20824;-62
2022/09/18 02:23:13;;;;;;;14.00;12.50;;;10.60;99.90;;;;;;6309593;22;20473;-62
2022/09/18 02:25:51;;;;;;;14.70;12.90;;;10.60;99.90;;;;;;6309858;22;20386;-61
2022/09/18 02:28:26;;;;;;;14.50;13.00;;;10.60;99.90;;;;;;6309275;22;20421;-61
2022/09/18 02:30:53;;;;;;;15.17;11.53;;;10.60;99.90;;;;;;6308892;22;20506;-62
2022/09/18 02:33:29;;;;;;;11.40;9.50;;;10.60;99.90;;;;;;6309286;22;20420;-63
2022/09/18 02:36:11;;;;;;;12.27;8.57;;;10.60;99.90;;;;;;6309890;22;20420;-63
2022/09/18 02:38:49;;;;;;;14.43;9.50;;;10.60;99.90;;;;;;6309460;22;20406;-65
2022/09/18 02:41:25;;;;;;;11.37;9.33;;;10.60;99.90;;;;;;6311662;22;20386;-64
2022/09/18 02:43:57;;;;;;;9.43;8.43;;;10.60;99.90;;;;;;6312026;22;20522;-63
2022/09/18 02:46:33;;;;;;;14.63;10.40;;;10.50;99.90;;;;;;6312184;22;20455;-63
2022/09/18 02:49:12;;;;;;;13.23;9.57;;;10.60;99.90;;;;;;6311267;22;20833;-63
2022/09/18 02:51:46;;;;;;;10.97;7.80;;;10.60;99.90;;;;;;6311534;22;20444;-63
2022/09/18 02:54:20;;;;;;;14.47;11.37;;;10.50;99.90;;;;;;6312120;22;20503;-62
2022/09/18 02:56:53;;;;;;;14.73;9.90;;;10.60;99.90;;;;;;6310914;22;20519;-62
2022/09/18 02:59:26;;;;;;;15.47;9.83;;;10.60;99.90;;;;;;6311246;22;20412;-62
2022/09/18 03:01:54;;;;;;;12.37;9.90;;;10.60;99.90;;;;;;6311621;22;20412;-62
2022/09/18 03:04:25;;;;;;;13.40;9.03;;;10.60;99.90;;;;;;6311716;22;20422;-62
2022/09/18 03:06:53;;;;;;;12.03;10.23;;;10.60;99.90;;;;;;6311695;22;20420;-62
2022/09/18 03:09:20;;;;;;;15.03;9.87;;;10.60;99.90;;;;;;6310325;22;20416;-61
2022/09/18 03:11:49;;;;;;;11.83;10.60;;;10.50;99.90;;;;;;6311616;22;20548;-62
2022/09/18 03:14:16;;;;;;;16.57;10.43;;;10.60;99.90;;;;;;6311690;22;20424;-61
2022/09/18 03:16:45;;;;;;;14.63;10.80;;;10.60;99.90;;;;;;6310578;22;20416;-62
2022/09/18 03:19:13;;;;;;;14.17;12.07;;;10.60;99.90;;;;;;6310629;22;20880;-61
2022/09/18 03:21:41;;;;;;;19.00;11.43;;;10.50;99.90;;;;;;6310882;22;20416;-61
2022/09/18 03:24:08;;;;;;;13.03;11.57;;;10.50;99.90;;;;;;6311745;22;20423;-60
2022/09/18 03:26:36;;;;;;;14.27;10.53;;;10.50;99.90;;;;;;6311312;22;20404;-62
2022/09/18 03:29:09;;;;;;;12.50;10.47;;;10.60;99.90;;;;;;6310912;22;20849;-61
2022/09/18 03:31:37;;;;;;;15.67;10.00;;;10.50;99.90;;;;;;6311166;22;20448;-59
2022/09/18 03:34:06;;;;;;;12.37;10.30;;;10.50;99.90;;;;;;6311019;22;20420;-61
2022/09/18 03:36:33;;;;;;;13.50;8.63;;;10.50;99.90;;;;;;6311456;22;20427;-61
2022/09/18 03:39:00;;;;;;;14.30;8.80;;;10.50;99.90;;;;;;6310252;22;20414;-61
2022/09/18 03:41:28;;;;;;;11.73;7.53;;;10.60;99.90;;;;;;6311387;22;20391;-62
2022/09/18 03:43:55;;;;;;;9.57;7.17;;;10.60;99.90;;;;;;6310932;22;20420;-61
2022/09/18 03:46:25;;;;;;;15.47;7.97;;;10.50;99.90;;;;;;6311233;22;20416;-61
2022/09/18 03:48:53;;;;;;;10.80;8.07;;;10.60;99.90;;;;;;6310816;22;20427;-62
2022/09/18 03:51:22;;;;;;;11.20;7.10;;;10.50;99.90;;;;;;6310147;22;20444;-62
2022/09/18 03:53:49;;;;;;;8.07;7.23;;;10.50;99.90;;;;;;6311221;22;20440;-62
2022/09/18 03:56:17;;;;;;;10.27;6.90;;;10.50;99.90;;;;;;6311595;22;20809;-62
2022/09/18 03:58:44;;;;;;;11.60;7.00;;;10.50;99.90;;;;;;6310895;22;20430;-61
2022/09/18 04:01:12;;;;;;;9.90;6.90;;;10.50;99.90;;;;;;6310158;22;20412;-62
2022/09/18 04:03:39;;;;;;;9.90;7.37;;;10.50;99.90;;;;;;6310258;22;20728;-62
2022/09/18 04:06:08;;;;;;;10.97;8.17;;;10.50;99.90;;;;;;6311198;22;20699;-62
2022/09/18 04:08:40;;;;;;;13.80;7.40;;;10.40;99.90;;;;;;6310957;22;20505;-62
2022/09/18 04:11:07;;;;;;;14.10;7.40;;;10.50;99.90;;;;;;6310679;22;20466;-62
2022/09/18 04:13:35;;;;;;;9.50;7.23;;;10.50;99.90;;;;;;6310888;22;20810;-62
2022/09/18 04:16:02;;;;;;;10.37;6.97;;;10.50;99.90;;;;;;6310555;22;20485;-61
2022/09/18 04:18:30;;;;;;;9.53;7.00;;;10.50;99.90;;;;;;6310820;22;20416;-62
2022/09/18 04:20:59;;;;;;;11.67;7.20;;;10.50;99.90;;;;;;6310293;22;20386;-62
2022/09/18 04:23:28;;;;;;;9.47;6.17;;;10.50;99.90;;;;;;6310286;22;20428;-62
2022/09/18 04:25:57;;;;;;;7.10;5.27;;;10.50;99.90;;;;;;6310734;22;20420;-62
2022/09/18 04:28:24;;;;;;;7.80;4.47;;;10.50;99.90;;;;;;6310675;22;20429;-64
2022/09/18 04:30:51;;;;;;;9.03;5.10;;;10.50;99.90;;;;;;6310148;22;20425;-65
2022/09/18 04:33:18;;;;;;;6.30;4.60;;;10.40;99.90;;;;;;6310205;22;20419;-63
2022/09/18 04:35:45;;;;;;;13.07;5.40;;;10.40;99.90;;;;;;6310330;22;20841;-63
2022/09/18 04:38:12;;;;;;;7.00;5.23;;;10.50;99.90;;;;;;6310836;22;20518;-64
2022/09/18 04:40:39;;;;;;;7.23;5.30;;;10.50;99.90;;;;;;6310219;22;20440;-64
2022/09/18 04:43:10;;;;;;;6.00;5.00;;;10.50;99.90;;;;;;6309720;22;20841;-65
2022/09/18 04:45:38;;;;;;;11.50;7.33;;;10.50;99.90;;;;;;6310763;22;20420;-64
2022/09/18 04:48:05;;;;;;;7.33;6.00;;;10.50;99.90;;;;;;6310597;22;20518;-65
2022/09/18 04:50:35;;;;;;;8.47;6.73;;;10.50;99.90;;;;;;6309974;22;20419;-64
2022/09/18 04:53:02;;;;;;;9.50;7.40;;;10.40;99.90;;;;;;6309779;22;20687;-64
2022/09/18 04:55:29;;;;;;;10.33;7.40;;;10.40;99.90;;;;;;6310190;22;20391;-64
2022/09/18 04:57:56;;;;;;;8.70;6.80;;;10.40;99.90;;;;;;6310597;22;20701;-64
2022/09/18 05:00:28;;;;;;;9.00;8.10;;;10.30;99.90;;;;;;6310596;22;20485;-65
2022/09/18 05:02:55;;;;;;;13.23;8.43;;;10.40;99.90;;;;;;6309305;22;20387;-65
2022/09/18 05:05:22;;;;;;;15.70;9.63;;;10.40;99.90;;;;;;6309722;22;20416;-65
2022/09/18 05:07:50;;;;;;;13.93;9.67;;;10.40;99.90;;;;;;6310120;22;20391;-65
2022/09/18 05:10:17;;;;;;;15.70;10.53;;;10.30;99.90;;;;;;6310954;22;20511;-64
2022/09/18 05:12:44;;;;;;;10.33;9.27;;;10.40;99.90;;;;;;6309153;22;20448;-65
2022/09/18 05:15:12;;;;;;;11.63;9.63;;;10.40;99.90;;;;;;6310112;22;20474;-65
2022/09/18 05:17:41;;;;;;;12.07;9.80;;;10.40;99.90;;;;;;6310007;22;20427;-63
2022/09/18 05:20:09;;;;;;;10.60;7.93;;;10.30;99.90;;;;;;6310373;22;20395;-63
2022/09/18 05:22:36;;;;;;;9.50;8.30;;;10.40;99.90;;;;;;6310083;22;20729;-64
2022/09/18 05:25:04;;;;;;;9.70;8.63;;;10.30;99.90;;;;;;6309451;22;20700;-64
2022/09/18 05:27:33;;;;;;;12.80;8.10;;;10.30;99.90;;;;;;6310404;22;20420;-64
2022/09/18 05:30:00;;;;;;;8.83;6.77;;;10.40;99.90;;;;;;6310162;22;20515;-64
2022/09/18 05:32:27;;;;;;;9.37;7.93;;;10.50;99.90;;;;;;6310061;22;20491;-64
2022/09/18 05:34:55;;;;;;;9.23;7.50;;;10.50;99.90;;;;;;6309829;22;20502;-64
2022/09/18 05:37:25;;;;;;;9.40;6.83;;;10.50;99.90;;;;;;6310262;22;20435;-63
2022/09/18 05:39:53;;;;;;;10.03;6.57;;;10.50;99.90;;;;;;6309664;22;20421;-63
2022/09/18 05:42:20;;;;;;;6.83;5.70;;;10.60;99.90;;;;;;6309971;22;20413;-63
2022/09/18 05:44:47;;;;;;;6.37;5.67;;;10.50;99.90;;;;;;6308069;22;20417;-63
2022/09/18 05:47:14;;;;;;;8.20;5.97;;;10.60;99.90;;;;;;6308035;22;20391;-63
2022/09/18 05:49:41;;;;;;;10.40;6.30;;;10.60;99.90;;;;;;6308514;22;20401;-63
2022/09/18 05:52:11;;;;;;;13.77;6.00;;;10.50;99.90;;;;;;6307807;22;20534;-63
2022/09/18 05:54:38;;;;;;;8.30;6.00;;;10.50;99.90;;;;;;6307740;22;20416;-63
2022/09/18 05:57:06;;;;;;;12.30;8.10;;;10.50;99.90;;;;;;6308039;22;20420;-62
2022/09/18 05:59:33;;;;;;;12.87;8.10;;;10.60;99.90;;;;;;6307964;22;20424;-63
2022/09/18 06:02:00;;;;;;;12.33;6.87;;;10.60;99.90;;;;;;6308188;22;20412;-64
2022/09/18 06:04:27;;;;;;;11.83;7.40;;;10.60;99.90;;;;;;6308107;22;20702;-62
2022/09/18 06:06:55;;;;;;;8.80;6.77;;;10.70;99.90;;;;;;6307455;22;20427;-64
2022/09/18 06:09:24;;;;;;;7.03;5.43;;;10.60;99.90;;;;;;6308032;22;20401;-64
2022/09/18 06:11:51;;;;;;;7.97;6.73;;;10.60;99.90;;;;;;6308682;22;20513;-65
2022/09/18 06:14:20;;;;;;;9.20;7.00;;;10.60;99.90;;;;;;6308525;22;20900;-64
2022/09/18 06:16:48;;;;;;;8.73;6.20;;;10.60;99.90;;;;;;6307175;22;20459;-64
2022/09/18 06:19:17;;;;;;;6.80;6.10;;;10.60;99.90;;;;;;6307653;22;20958;-64
2022/09/18 06:21:51;;;;;;;7.77;5.90;;;10.70;99.90;;;;;;6307220;22;20387;-64
2022/09/18 06:24:18;;;;;;;7.80;6.17;;;10.70;99.90;;;;;;6308976;22;20481;-63
2022/09/18 06:26:48;;;;;;;10.40;5.47;;;10.70;99.90;;;;;;6307884;22;20471;-64
2022/09/18 06:29:16;;;;;;;7.83;6.80;;;10.80;99.90;;;;;;6309084;22;20666;-64
2022/09/18 06:31:43;;;;;;;8.70;5.97;;;10.80;99.90;;;;;;6309331;22;20444;-63
2022/09/18 06:34:10;;;;;;;7.93;6.43;;;10.90;99.90;;;;;;6309696;22;20412;-64
2022/09/18 06:36:37;;;;;;;10.27;6.23;;;10.90;99.90;;;;;;6308619;22;20426;-64
2022/09/18 06:39:04;;;;;;;7.20;6.00;;;11.00;99.90;;;;;;6308967;22;20417;-63
2022/09/18 06:41:31;;;;;;;12.80;6.50;;;11.00;99.90;;;;;;6309949;22;20413;-63
2022/09/18 06:44:00;;;;;;;7.90;5.83;;;11.00;99.90;;;;;;6309483;22;20395;-63
2022/09/18 06:46:27;;;;;;;6.33;5.73;;;11.00;99.90;;;;;;6310027;22;20391;-63
2022/09/18 06:48:57;;;;;;;6.80;6.17;;;11.10;99.90;;;;;;6308762;22;20395;-63
2022/09/18 06:51:24;;;;;;;5.80;5.17;;;11.10;99.90;;;;;;6309612;22;20438;-63
2022/09/18 06:53:51;;;;;;;8.23;5.50;;;11.10;99.90;;;;;;6309772;22;20416;-63
2022/09/18 06:56:18;;;;;;;7.47;5.47;;;11.20;99.90;;;;;;6309534;22;20734;-63
2022/09/18 06:58:47;;;;;;;10.33;6.20;;;11.10;99.90;;;;;;6308601;22;20732;-63
2022/09/18 07:01:15;;;;;;;7.33;5.40;;;11.10;99.90;;;;;;6309495;22;20423;-63
2022/09/18 07:03:42;;;;;;;5.73;5.10;;;11.10;99.90;;;;;;6309288;22;20420;-63
2022/09/18 07:06:12;;;;;;;5.70;5.10;;;11.10;99.90;;;;;;6308969;22;20416;-63
2022/09/18 07:08:40;;;;;;;5.93;4.53;;;11.20;99.90;;;;;;6309166;22;20778;-63
2022/09/18 07:11:07;;;;;;;5.90;4.73;;;11.10;99.90;;;;;;6309038;22;20426;-63
2022/09/18 07:13:36;;;;;;;5.00;4.00;;;11.20;99.90;;;;;;6308876;22;20444;-63
2022/09/18 07:16:05;;;;;;;4.83;3.07;;;11.20;99.90;;;;;;6309326;22;20518;-63
2022/09/18 07:18:35;;;;;;;5.77;3.60;;;11.20;99.90;;;;;;6309360;22;20511;-64
2022/09/18 07:21:02;;;;;;;7.50;3.13;;;11.20;99.90;;;;;;6309341;22;20420;-64
2022/09/18 07:23:31;;;;;;;6.07;3.70;;;11.10;99.90;;;;;;6308157;22;20416;-69
2022/09/18 07:25:59;;;;;;;7.77;4.63;;;11.10;99.90;;;;;;6311083;22;20424;-63
2022/09/18 07:28:29;;;;;;;4.97;2.90;;;11.10;99.90;;;;;;6311426;22;20420;-65
2022/09/18 07:31:02;;;;;;;6.67;3.60;;;11.20;99.90;;;;;;6311066;22;20424;-64
2022/09/18 07:33:29;;;;;;;4.90;3.93;;;11.20;99.90;;;;;;6310860;22;20448;-65
2022/09/18 07:36:01;;;;;;;6.87;4.57;;;11.20;99.90;;;;;;6310708;22;20423;-65
2022/09/18 07:38:29;;;;;;;6.50;4.60;;;11.30;99.90;;;;;;6311323;22;20427;-65
2022/09/18 07:40:56;;;;;;;6.80;4.90;;;11.30;99.90;;;;;;6309069;22;20417;-65
2022/09/18 07:43:23;;;;;;;8.97;5.07;;;11.30;99.90;;;;;;6310199;22;20434;-65
2022/09/18 07:45:50;;;;;;;8.07;5.10;;;11.40;99.90;;;;;;6311027;22;20401;-64
2022/09/18 07:48:17;;;;;;;7.33;4.80;;;11.40;99.90;;;;;;6310593;22;20416;-64
2022/09/18 07:50:45;;;;;;;10.77;4.10;;;11.50;99.90;;;;;;6311117;22;20493;-64
2022/09/18 07:53:13;;;;;;;4.43;4.03;;;11.50;99.90;;;;;;6310371;22;20454;-64
2022/09/18 07:55:45;;;;;;;4.67;3.50;;;11.40;99.90;;;;;;6310247;22;20870;-64
2022/09/18 07:58:14;;;;;;;3.90;3.50;;;11.60;99.90;;;;;;6310770;22;20452;-64
2022/09/18 08:00:43;;;;;;;9.70;3.43;;;11.50;99.90;;;;;;6310451;22;20467;-64
2022/09/18 08:03:11;;;;;;;4.40;4.00;;;11.60;99.90;;;;;;6310985;22;20423;-64
2022/09/18 08:05:39;;;;;;;6.07;4.00;;;11.70;99.90;;;;;;6310848;22;20416;-64
2022/09/18 08:08:08;;;;;;;3.70;3.10;;;11.90;99.90;;;;;;6310240;22;20416;-63
2022/09/18 08:10:44;;;;;;;4.13;3.20;;;11.90;99.90;;;;;;6310752;22;20392;-63
2022/09/18 08:13:11;;;;;;;4.17;3.30;;;11.90;99.90;;;;;;6310852;22;20885;-64
2022/09/18 08:15:40;;;;;;;3.87;2.80;;;12.00;99.90;;;;;;6310200;22;20420;-63
2022/09/18 08:18:09;;;;;;;3.37;2.43;;;11.90;99.90;;;;;;6310426;22;20425;-63
2022/09/18 08:20:37;;;;;;;4.30;2.50;;;11.90;99.90;;;;;;6310739;22;20416;-63
2022/09/18 08:23:07;;;;;;;4.40;3.07;;;11.90;99.90;;;;;;6309933;22;20412;-63
2022/09/18 08:25:36;;;;;;;3.03;2.50;;;12.00;99.90;;;;;;6310446;22;20419;-63
2022/09/18 08:28:06;;;;;;;2.97;1.90;;;11.90;99.90;;;;;;6310507;22;20391;-63
2022/09/18 08:30:37;;;;;;;2.70;2.07;;;11.90;99.90;;;;;;6310961;22;20726;-63
2022/09/18 08:33:11;;;;;;;2.80;2.07;;;11.90;99.90;;;;;;6311005;22;20968;-63
2022/09/18 08:35:38;;;;;;;4.43;2.23;;;11.90;99.90;;;;;;6310363;22;20507;-66
2022/09/18 08:38:09;;;;;;;4.30;2.40;;;11.90;99.90;;;;;;6310075;22;20427;-65
2022/09/18 08:41:04;;;;;;;3.13;2.27;;;11.90;99.90;;;;;;6309202;22;20452;-66
2022/09/18 08:43:54;;;;;;;3.33;2.30;;;11.80;99.90;;;;;;6310715;22;20419;-65
2022/09/18 08:46:28;;;;;;;4.40;2.20;;;11.80;99.90;;;;;;6310461;22;20391;-65
2022/09/18 08:49:02;;;;;;;3.53;2.93;;;11.80;99.90;;;;;;6310541;22;20746;-66
2022/09/18 08:51:34;;;;;;;4.03;2.93;;;11.80;99.90;;;;;;6310005;22;20801;-65
2022/09/18 08:54:16;;;;;;;4.93;3.10;;;11.90;99.90;;;;;;6308815;22;20451;-64
2022/09/18 08:56:44;;;;;;;3.63;3.20;;;11.90;99.90;;;;;;6309128;22;20416;-64
2022/09/18 08:59:18;;;;;;;5.23;3.70;;;11.80;99.90;;;;;;6309237;22;20441;-64
2022/09/18 09:01:52;;;;;;;4.60;3.27;;;11.90;99.90;;;;;;6309107;22;20783;-63
2022/09/18 09:04:27;;;;;;;6.03;3.57;;;11.90;99.90;;;;;;6308788;22;20420;-64
2022/09/18 09:07:13;;;;;;;3.70;3.40;;;11.80;99.90;;;;;;6309068;22;20841;-66
2022/09/18 09:09:53;;;;;;;6.50;4.83;;;11.80;99.90;;;;;;6307161;22;20455;-63
2022/09/18 09:12:29;;;;;;;4.30;3.10;;;11.80;99.90;;;;;;6308553;22;20426;-64
2022/09/18 09:15:20;;;;;;;5.57;3.90;;;11.70;99.90;;;;;;6309864;22;20837;-63
2022/09/18 09:17:55;;;;;;;4.20;3.30;;;11.70;99.90;;;;;;6310044;22;20518;-64
2022/09/18 09:20:36;;;;;;;5.23;3.50;;;11.50;99.90;;;;;;6309845;22;20519;-64
2022/09/18 09:23:06;;;;;;;10.00;4.77;;;11.60;99.90;;;;;;6310575;22;20391;-64
2022/09/18 09:25:40;;;;;;;6.40;4.03;;;11.60;99.90;;;;;;6309252;22;20416;-64
2022/09/18 09:28:16;;;;;;;4.60;3.30;;;11.80;99.90;;;;;;6309913;22;20438;-64
2022/09/18 09:30:48;;;;;;;7.03;3.47;;;11.90;99.90;;;;;;6309851;22;20390;-63
2022/09/18 09:33:24;;;;;;;4.57;3.40;;;12.00;99.90;;;;;;6309987;22;20415;-63
2022/09/18 09:35:55;;;;;;;5.07;2.80;;;12.10;99.90;;;;;;6308401;22;20518;-64
2022/09/18 09:38:45;;;;;;;5.00;3.50;;;12.10;99.90;;;;;;6309638;22;20394;-63
2022/09/18 09:41:29;;;;;;;4.93;3.00;;;12.20;99.90;;;;;;6308955;22;20625;-63
2022/09/18 09:44:14;;;;;;;3.23;2.93;;;12.10;99.90;;;;;;6309357;22;20416;-63
2022/09/18 09:46:57;;;;;;;4.07;3.10;;;12.10;99.90;;;;;;6309677;22;20423;-63
2022/09/18 09:49:25;;;;;;;5.13;3.40;;;12.10;99.90;;;;;;6309968;22;20416;-63
2022/09/18 09:52:05;;;;;;;4.63;3.33;;;12.20;99.90;;;;;;6309820;22;20391;-63
2022/09/18 09:54:32;;;;;;;3.77;2.90;;;12.10;99.90;;;;;;6309406;22;20412;-62
2022/09/18 09:57:08;;;;;;;6.60;3.10;;;12.00;99.90;;;;;;6310290;22;20519;-63
2022/09/18 09:59:45;;;;;;;5.20;3.40;;;12.00;99.90;;;;;;6309814;22;20394;-63
2022/09/18 10:02:36;;;;;;;6.40;3.67;;;12.00;99.90;;;;;;6307553;22;20522;-63
2022/09/18 10:05:17;;;;;;;4.87;2.80;;;12.00;99.90;;;;;;6309006;22;20428;-63
2022/09/18 10:07:49;;;;;;;3.90;3.13;;;12.00;99.90;;;;;;6309382;22;20887;-63
2022/09/18 10:10:26;;;;;;;4.37;3.20;;;12.00;99.90;;;;;;6309216;22;20877;-63
2022/09/18 10:13:00;;;;;;;5.40;4.27;;;12.10;99.90;;;;;;6308994;22;20444;-62
2022/09/18 10:15:34;;;;;;;9.60;4.90;;;12.10;99.90;;;;;;6309584;22;20416;-62
2022/09/18 10:18:15;;;;;;;4.33;3.93;;;12.00;99.90;;;;;;6309309;22;20420;-64
2022/09/18 10:20:44;;;;;;;5.63;4.73;;;12.00;99.90;;;;;;6309445;22;20416;-63
2022/09/18 10:23:24;;;;;;;5.00;4.50;;;12.10;99.90;;;;;;6309538;22;20473;-63
2022/09/18 10:25:58;;;;;;;5.00;4.50;;;12.00;99.90;;;;;;6309454;22;20466;-62
2022/09/18 10:28:30;;;;;;;6.70;4.87;;;12.20;99.90;;;;;;6309561;22;20890;-62
2022/09/18 10:31:02;;;;;;;6.60;5.23;;;12.20;99.90;;;;;;6309654;22;20422;-62
2022/09/18 10:33:36;;;;;;;7.70;5.10;;;12.20;99.90;;;;;;6309386;22;20606;-62
2022/09/18 10:36:12;;;;;;;5.10;4.60;;;12.20;99.90;;;;;;6309222;22;20419;-62
2022/09/18 10:38:39;;;;;;;7.97;5.20;;;12.20;99.90;;;;;;6308957;22;20435;-62
2022/09/18 10:41:37;;;;;;;5.73;4.30;;;12.20;99.90;;;;;;6309202;22;20412;-62
2022/09/18 10:44:20;;;;;;;4.50;4.10;;;12.40;99.90;;;;;;6309446;22;20391;-62
2022/09/18 10:47:00;;;;;;;5.20;4.70;;;12.40;99.90;;;;;;6309751;22;20469;-62
2022/09/18 10:49:33;;;;;;;4.77;4.33;;;12.50;99.90;;;;;;6310142;22;20852;-62
2022/09/18 10:52:28;;;;;;;4.90;4.50;;;12.40;99.90;;;;;;6309060;22;20416;-62
2022/09/18 10:55:19;;;;;;;8.93;4.30;;;12.20;99.90;;;;;;6309096;22;20413;-62
2022/09/18 10:58:03;;;;;;;5.93;3.60;;;12.20;99.90;;;;;;6309280;22;20416;-63
2022/09/18 11:00:39;;;;;;;4.60;4.10;;;12.10;99.90;;;;;;6310439;22;20423;-70
2022/09/18 11:03:31;;;;;;;6.50;5.90;;;12.10;99.90;;;;;;6311676;22;20424;-69
2022/09/18 11:06:02;;;;;;;2.27;2.07;;;12.00;99.90;;;;;;6310696;22;20398;-68
2022/09/18 11:08:36;;;;;;;5.57;2.80;;;11.30;99.90;;;;;;6311505;22;20463;-70
2022/09/18 11:11:06;;;;;;;3.30;2.10;;;11.10;99.90;;;;;;6311470;22;20835;-68
2022/09/18 11:13:44;;;;;;;4.97;2.10;;;11.10;99.90;;;;;;6310937;22;20469;-64
2022/09/18 11:16:22;;;;;;;2.57;1.60;;;10.80;99.90;;;;;;6311210;22;20416;-64
2022/09/18 11:19:03;;;;;;;5.53;1.70;;;10.70;99.90;;;;;;6311676;22;20418;-65
2022/09/18 11:21:34;;;;;;;5.53;1.70;;;10.50;99.90;;;;;;6311531;22;20397;-70
2022/09/18 11:24:05;;;;;;;2.67;2.30;;;10.50;99.90;;;;;;6311416;22;20417;-66
2022/09/18 11:26:35;;;;;;;2.70;1.90;;;10.50;99.90;;;;;;6310337;22;20439;-64
2022/09/18 11:29:07;;;;;;;2.83;1.80;;;10.40;99.90;;;;;;6311337;22;20390;-66
2022/09/18 11:31:41;;;;;;;3.77;1.70;;;10.40;99.90;;;;;;6311151;22;20412;-70
2022/09/18 11:34:22;;;;;;;4.80;1.97;;;10.40;99.90;;;;;;6310186;22;20422;-65
2022/09/18 11:36:56;;;;;;;4.90;2.27;;;10.40;99.90;;;;;;6309423;22;20473;-69
2022/09/18 11:39:29;;;;;;;3.07;2.10;;;10.40;99.90;;;;;;6309443;22;20513;-65
2022/09/18 11:41:56;;;;;;;2.40;2.20;;;10.50;99.90;;;;;;6309673;22;20686;-64
2022/09/18 11:44:27;;;;;;;2.53;2.23;;;10.60;99.90;;;;;;6309751;22;20869;-64
2022/09/18 11:47:19;;;;;;;3.73;2.30;;;10.60;99.90;;;;;;6307868;22;20390;-65
2022/09/18 11:49:57;;;;;;;4.17;2.90;;;10.80;99.90;;;;;;6308055;22;20391;-70
2022/09/18 11:52:30;;;;;;;3.70;3.00;;;10.70;99.90;;;;;;6307550;22;20416;-71
2022/09/18 11:55:03;;;;;;;4.63;3.43;;;10.90;99.90;;;;;;6309144;22;20880;-63
2022/09/18 11:57:37;;;;;;;3.57;3.27;;;10.90;99.90;;;;;;6306621;22;20490;-64
2022/09/18 12:00:09;;;;;;;4.17;3.20;;;11.00;99.90;;;;;;6309749;22;20853;-64
2022/09/18 12:02:47;;;;;;;3.53;2.70;;;11.10;99.90;;;;;;6309838;22;20420;-66
2022/09/18 12:05:20;;;;;;;3.47;3.10;;;11.10;99.90;;;;;;6309088;22;20503;-64
2022/09/18 12:07:59;;;;;;;3.50;3.20;;;11.10;99.90;;;;;;6307374;22;20660;-65
2022/09/18 12:10:46;;;;;;;3.70;3.33;;;11.10;99.90;;;;;;6307380;22;20924;-65
2022/09/18 12:13:45;;;;;;;4.60;3.40;;;11.20;99.90;;;;;;6308221;22;20554;-66
2022/09/18 12:16:17;;;;;;;7.37;3.77;;;11.40;99.90;;;;;;6308802;22;20421;-65
2022/09/18 12:18:53;;;;;;;4.27;3.30;;;11.50;99.90;;;;;;6308948;22;20851;-66
2022/09/18 12:21:29;;;;;;;5.00;3.40;;;11.50;99.90;;;;;;6309339;22;20412;-65
2022/09/18 12:23:59;;;;;;;3.63;3.20;;;11.60;99.90;;;;;;6309201;22;20412;-65
2022/09/18 12:26:37;;;;;;;3.60;2.83;;;11.70;99.90;;;;;;6309370;22;20530;-65
2022/09/18 12:29:14;;;;;;;4.07;3.57;;;11.90;99.90;;;;;;6309266;22;20437;-64
2022/09/18 12:31:52;;;;;;;5.07;4.03;;;11.90;99.90;;;;;;6309488;22;20412;-65
2022/09/18 12:34:32;;;;;;;4.97;4.47;;;11.80;99.90;;;;;;6309096;22;20506;-66
2022/09/18 12:37:20;;;;;;;6.10;4.20;;;11.80;99.90;;;;;;6309679;22;20438;-66
2022/09/18 12:40:26;;;;;;;5.90;4.13;;;11.80;99.90;;;;;;6308489;22;20444;-65
2022/09/18 12:43:08;;;;;;;6.00;4.17;;;11.70;99.90;;;;;;6309564;22;20499;-64
2022/09/18 12:46:03;;;;;;;6.80;5.37;;;11.70;99.90;;;;;;6307468;22;20420;-64
2022/09/18 12:48:47;;;;;;;5.10;4.67;;;11.70;99.90;;;;;;6309186;22;20401;-64
2022/09/18 12:51:30;;;;;;;6.67;4.30;;;11.70;99.90;;;;;;6308772;22;20451;-64
2022/09/18 12:54:14;;;;;;;6.23;4.03;;;11.70;99.90;;;;;;6308453;22;20448;-64
2022/09/18 12:56:54;;;;;;;7.03;3.17;;;11.80;99.90;;;;;;6309360;22;20420;-65
2022/09/18 12:59:38;;;;;;;3.40;2.70;;;11.80;99.90;;;;;;6310167;22;20692;-66
2022/09/18 13:02:19;;;;;;;3.90;2.87;;;11.70;99.90;;;;;;6310148;22;20424;-65
2022/09/18 13:04:50;;;;;;;3.83;2.83;;;11.70;99.90;;;;;;6310382;22;20502;-64
2022/09/18 13:07:23;;;;;;;3.27;2.73;;;11.50;99.90;;;;;;6310340;22;20485;-65